Time;durP1;ratioP1;P1;durP2;ratioP2;P2;SDS_P1;SDS_P2;PMS_P1;PMS_P2;Temp;Humidity;BMP_temperature;BMP_pressure;BME280_temperature;BME280_humidity;BME280_pressure;Samples;Min_cycle;Max_cycle;Signal;HPM_P1;HPM_P2
2023/07/01 00:01:26;;;;;;;6.38;2.00;;;;;18.60;100312.00;;;;10536940;28;20220;-74
2023/07/01 00:06:27;;;;;;;5.50;2.22;;;;;18.50;100307.00;;;;10539079;28;20226;-74
2023/07/01 00:11:28;;;;;;;8.65;2.05;;;;;18.50;100310.00;;;;10528972;28;20207;-74
2023/07/01 00:16:30;;;;;;;7.30;2.35;;;;;18.50;100293.00;;;;10533676;28;20208;-74
2023/07/01 00:21:31;;;;;;;9.48;2.95;;;;;18.50;100294.00;;;;10540901;28;20303;-81
2023/07/01 00:26:32;;;;;;;6.93;2.40;;;;;18.60;100302.00;;;;10540232;28;20605;-77
2023/07/01 00:31:33;;;;;;;3.33;2.40;;;;;18.60;100300.00;;;;10525498;28;20208;-73
2023/07/01 00:36:34;;;;;;;5.28;2.50;;;;;18.50;100302.00;;;;10519559;28;20619;-79
2023/07/01 00:41:36;;;;;;;3.83;2.50;;;;;18.20;100298.00;;;;10526143;28;20219;-76
2023/07/01 00:46:37;;;;;;;9.18;2.65;;;;;17.80;100298.00;;;;10520876;28;20288;-77
2023/07/01 00:51:39;;;;;;;5.93;2.67;;;;;17.10;100289.00;;;;10528575;28;20209;-81
2023/07/01 00:56:40;;;;;;;3.30;2.50;;;;;16.70;100287.00;;;;10520283;28;20233;-78
2023/07/01 01:01:46;;;;;;;2.95;2.35;;;;;16.50;100280.00;;;;10535651;28;20270;-75
2023/07/01 01:06:56;;;;;;;3.50;2.25;;;;;16.40;100264.00;;;;10538002;28;20283;-76
2023/07/01 01:11:58;;;;;;;5.45;2.95;;;;;16.40;100256.00;;;;10528458;28;20618;-76
2023/07/01 01:17:04;;;;;;;3.13;2.42;;;;;16.30;100243.00;;;;10515340;28;20209;-77
2023/07/01 01:22:14;;;;;;;3.30;2.58;;;;;16.40;100228.00;;;;10523953;28;20638;-77
2023/07/01 01:27:19;;;;;;;2.50;1.95;;;;;16.40;100242.00;;;;10512403;28;20244;-75
2023/07/01 01:32:20;;;;;;;4.32;2.05;;;;;16.40;100225.00;;;;10479871;28;20205;-75
2023/07/01 01:37:54;;;;;;;4.18;2.17;;;;;16.50;100237.00;;;;10526214;28;20200;-75
2023/07/01 01:43:03;;;;;;;3.38;2.63;;;;;16.50;100230.00;;;;10476671;28;20239;-76
2023/07/01 01:48:05;;;;;;;5.90;2.70;;;;;16.50;100218.00;;;;10517211;28;20647;-76
2023/07/01 01:53:09;;;;;;;6.10;2.40;;;;;16.60;100221.00;;;;10518004;28;20205;-74
2023/07/01 01:58:12;;;;;;;3.80;2.50;;;;;16.60;100214.00;;;;10514488;28;20217;-75
2023/07/01 02:03:13;;;;;;;3.40;2.25;;;;;16.60;100214.00;;;;10518995;28;20203;-75
2023/07/01 02:08:15;;;;;;;5.45;2.30;;;;;16.60;100211.00;;;;10530003;28;20227;-76
2023/07/01 02:13:16;;;;;;;3.63;2.88;;;;;16.50;100207.00;;;;10495825;28;20204;-75
2023/07/01 02:18:18;;;;;;;7.53;3.25;;;;;16.40;100203.00;;;;10504622;28;20200;-75
2023/07/01 02:23:19;;;;;;;4.53;2.78;;;;;16.30;100199.00;;;;10509702;28;20617;-75
2023/07/01 02:28:20;;;;;;;3.95;2.38;;;;;16.30;100204.00;;;;10512774;28;20615;-75
2023/07/01 02:33:22;;;;;;;3.63;2.72;;;;;16.20;100196.00;;;;10505693;28;20212;-76
2023/07/01 02:38:23;;;;;;;3.67;2.60;;;;;16.10;100187.00;;;;10488126;28;20605;-76
2023/07/01 02:43:24;;;;;;;7.22;3.17;;;;;16.00;100182.00;;;;10522452;28;20239;-77
2023/07/01 02:48:27;;;;;;;5.00;3.10;;;;;16.00;100182.00;;;;10514615;28;20205;-78
2023/07/01 02:53:28;;;;;;;3.15;2.83;;;;;15.90;100166.00;;;;10539160;28;20436;-78
2023/07/01 02:58:29;;;;;;;4.88;2.88;;;;;15.90;100170.00;;;;10515322;28;20250;-78
2023/07/01 03:03:31;;;;;;;4.47;2.78;;;;;15.90;100190.00;;;;10536915;28;20193;-77
2023/07/01 03:08:32;;;;;;;2.70;2.50;;;;;16.00;100179.00;;;;10515720;28;20646;-77
2023/07/01 03:13:35;;;;;;;4.65;2.67;;;;;16.00;100183.00;;;;10506735;28;20278;-78
2023/07/01 03:18:37;;;;;;;3.85;2.60;;;;;16.00;100165.00;;;;10526279;28;20246;-78
2023/07/01 03:23:38;;;;;;;5.78;2.45;;;;;16.00;100154.00;;;;10507644;28;20197;-77
2023/07/01 03:28:39;;;;;;;2.95;1.90;;;;;16.00;100150.00;;;;10517419;28;20215;-78
2023/07/01 03:33:40;;;;;;;3.42;2.55;;;;;16.00;100147.00;;;;10523709;28;20197;-78
2023/07/01 03:38:42;;;;;;;3.75;2.25;;;;;16.00;100147.00;;;;10483449;28;20221;-78
2023/07/01 03:43:43;;;;;;;4.13;2.17;;;;;15.90;100150.00;;;;10482103;28;20205;-79
2023/07/01 03:48:44;;;;;;;3.10;2.15;;;;;15.80;100140.00;;;;10535336;28;20197;-79
2023/07/01 03:53:45;;;;;;;6.13;2.92;;;;;15.80;100134.00;;;;10519413;28;20618;-79
2023/07/01 03:58:47;;;;;;;3.67;2.78;;;;;15.80;100138.00;;;;10505350;28;20242;-79
2023/07/01 04:03:48;;;;;;;4.20;2.38;;;;;15.70;100137.00;;;;10488667;28;20210;-78
2023/07/01 04:08:54;;;;;;;3.83;2.72;;;;;15.70;100140.00;;;;10519155;28;20212;-79
2023/07/01 04:13:56;;;;;;;6.20;3.20;;;;;15.80;100129.00;;;;10498294;28;20197;-79
2023/07/01 04:18:57;;;;;;;4.43;2.97;;;;;15.80;100117.00;;;;10493445;28;20216;-79
2023/07/01 04:24:00;;;;;;;2.55;2.35;;;;;15.90;100102.00;;;;10521523;28;20197;-79
2023/07/01 04:29:03;;;;;;;3.60;2.80;;;;;15.90;100101.00;;;;10533590;28;20190;-78
2023/07/01 04:34:04;;;;;;;3.17;2.75;;;;;15.90;100098.00;;;;10525323;28;20208;-79
2023/07/01 04:39:05;;;;;;;3.92;2.53;;;;;16.10;100091.00;;;;10513538;28;20242;-79
2023/07/01 04:44:07;;;;;;;2.55;2.35;;;;;16.30;100089.00;;;;10529054;28;20257;-79
2023/07/01 04:49:09;;;;;;;3.70;2.40;;;;;16.30;100086.00;;;;10539583;28;20209;-78
2023/07/01 04:54:10;;;;;;;2.30;2.10;;;;;16.20;100091.00;;;;10512354;28;20504;-79
2023/07/01 04:59:11;;;;;;;4.82;2.03;;;;;16.30;100075.00;;;;10525747;28;20231;-78
2023/07/01 05:04:13;;;;;;;2.92;2.00;;;;;16.30;100084.00;;;;10500202;28;20251;-78
2023/07/01 05:09:14;;;;;;;2.28;1.98;;;;;16.40;100073.00;;;;10537557;28;20197;-78
2023/07/01 05:14:16;;;;;;;1.83;1.67;;;;;16.60;100067.00;;;;10503913;28;20581;-78
2023/07/01 05:19:17;;;;;;;2.13;1.60;;;;;16.70;100060.00;;;;10537385;28;20315;-78
2023/07/01 05:24:18;;;;;;;1.35;1.25;;;;;16.70;100048.00;;;;10517608;28;20360;-78
2023/07/01 05:29:25;;;;;;;1.42;1.33;;;;;16.70;100055.00;;;;10502322;28;20227;-78
2023/07/01 05:34:26;;;;;;;1.48;1.35;;;;;16.80;100049.00;;;;10530297;28;20203;-78
2023/07/01 05:39:30;;;;;;;1.60;1.50;;;;;16.90;100046.00;;;;10501186;28;20579;-78
2023/07/01 05:44:31;;;;;;;1.52;1.25;;;;;17.10;100047.00;;;;10531761;28;20611;-77
2023/07/01 05:49:32;;;;;;;1.23;1.13;;;;;17.20;100046.00;;;;10525063;28;20644;-77
2023/07/01 05:54:34;;;;;;;1.73;1.38;;;;;17.20;100038.00;;;;10536728;28;20295;-77
2023/07/01 05:59:35;;;;;;;1.70;1.60;;;;;17.30;100045.00;;;;10525251;28;20228;-77
2023/07/01 06:04:37;;;;;;;2.85;1.55;;;;;17.30;100044.00;;;;10489265;28;20197;-76
2023/07/01 06:09:38;;;;;;;3.33;1.80;;;;;17.40;100026.00;;;;10507450;28;20227;-77
2023/07/01 06:14:39;;;;;;;1.70;1.60;;;;;17.50;100033.00;;;;10519741;28;20219;-77
2023/07/01 06:19:40;;;;;;;2.15;1.70;;;;;17.60;100029.00;;;;10531185;28;20677;-76
2023/07/01 06:24:42;;;;;;;1.95;1.80;;;;;17.80;100026.00;;;;10525235;28;20612;-77
2023/07/01 06:29:43;;;;;;;2.08;1.60;;;;;17.70;100032.00;;;;10518431;28;20293;-77
2023/07/01 06:34:45;;;;;;;2.05;1.45;;;;;17.60;100018.00;;;;10525372;28;20240;-78
2023/07/01 06:39:47;;;;;;;1.55;1.45;;;;;17.50;100030.00;;;;10518742;28;20220;-78
2023/07/01 06:44:48;;;;;;;1.90;1.50;;;;;17.40;100017.00;;;;10542172;28;20235;-78
2023/07/01 06:49:50;;;;;;;1.25;1.15;;;;;17.50;100029.00;;;;10534774;28;20662;-78
2023/07/01 06:54:51;;;;;;;1.10;1.10;;;;;17.60;100019.00;;;;10528774;28;20242;-77
2023/07/01 06:59:53;;;;;;;1.83;0.82;;;;;17.60;100016.00;;;;10525464;28;20203;-77
2023/07/01 07:04:55;;;;;;;0.85;0.85;;;;;17.80;100019.00;;;;10526366;28;20570;-78
2023/07/01 07:09:56;;;;;;;0.70;0.70;;;;;17.90;100018.00;;;;10537991;28;20205;-78
2023/07/01 07:14:58;;;;;;;1.77;0.70;;;;;17.90;100008.00;;;;10511762;28;20257;-76
2023/07/01 07:19:59;;;;;;;7.43;2.75;;;;;17.90;99999.00;;;;10519620;28;20224;-75
2023/07/01 07:25:00;;;;;;;1.85;0.80;;;;;18.10;99997.00;;;;10519807;28;20209;-76
2023/07/01 07:30:02;;;;;;;0.60;0.60;;;;;18.40;99990.00;;;;10534276;28;20286;-77
2023/07/01 07:35:06;;;;;;;2.22;1.30;;;;;18.50;99989.00;;;;10532726;28;20201;-77
2023/07/01 07:40:08;;;;;;;0.90;0.90;;;;;18.50;99994.00;;;;10512169;28;20713;-77
2023/07/01 07:45:10;;;;;;;1.85;0.98;;;;;18.50;99998.00;;;;10523360;28;20657;-76
2023/07/01 07:50:11;;;;;;;4.53;1.30;;;;;18.60;99995.00;;;;10530450;28;20204;-77
2023/07/01 07:55:13;;;;;;;1.45;1.30;;;;;18.60;99990.00;;;;10553918;28;20196;-77
2023/07/01 08:00:14;;;;;;;4.13;1.40;;;;;18.80;99987.00;;;;10524951;28;20644;-77
2023/07/01 08:05:17;;;;;;;2.22;1.65;;;;;18.90;99995.00;;;;10539579;28;20200;-76
2023/07/01 08:10:18;;;;;;;1.48;1.30;;;;;19.20;99980.00;;;;10502780;28;20201;-76
2023/07/01 08:15:19;;;;;;;1.48;1.38;;;;;19.20;99986.00;;;;10516472;28;20208;-77
2023/07/01 08:20:23;;;;;;;1.30;1.30;;;;;19.30;99986.00;;;;10530827;28;20315;-76
2023/07/01 08:25:24;;;;;;;1.58;1.48;;;;;19.70;99981.00;;;;10490341;28;20201;-76
2023/07/01 08:30:25;;;;;;;2.08;1.90;;;;;19.80;99982.00;;;;10533929;28;20242;-77
2023/07/01 08:35:29;;;;;;;2.00;1.90;;;;;19.90;99986.00;;;;10506163;28;20200;-78
2023/07/01 08:40:30;;;;;;;4.18;1.83;;;;;19.60;99983.00;;;;10505201;28;20598;-78
2023/07/01 08:45:32;;;;;;;2.55;2.00;;;;;19.70;99984.00;;;;10516554;28;20240;-77
2023/07/01 08:50:50;;;;;;;3.50;2.08;;;;;19.80;99983.00;;;;10513899;28;20205;-78
2023/07/01 08:55:52;;;;;;;3.15;2.10;;;;;19.60;99977.00;;;;10513216;28;20189;-79
2023/07/01 09:00:55;;;;;;;2.25;2.10;;;;;19.70;99983.00;;;;10515580;28;20220;-78
2023/07/01 09:05:57;;;;;;;3.72;2.50;;;;;19.90;99977.00;;;;10527019;28;20239;-78
2023/07/01 09:10:59;;;;;;;3.97;3.10;;;;;19.90;99972.00;;;;10500046;28;20201;-77
2023/07/01 09:16:00;;;;;;;4.35;2.55;;;;;20.10;99982.00;;;;10518159;28;20220;-77
2023/07/01 09:21:04;;;;;;;4.53;3.15;;;;;20.20;99977.00;;;;10537662;28;20311;-76
2023/07/01 09:26:08;;;;;;;4.07;3.67;;;;;20.70;99976.00;;;;10525614;28;20208;-76
2023/07/01 09:31:12;;;;;;;3.80;3.53;;;;;21.70;99964.00;;;;10545216;28;20658;-76
2023/07/01 09:36:24;;;;;;;5.47;3.60;;;;;21.30;99965.00;;;;10543129;28;20203;-77
2023/07/01 09:41:26;;;;;;;3.50;3.13;;;;;20.90;99965.00;;;;10517060;28;20689;-75
2023/07/01 09:46:46;;;;;;;3.13;2.80;;;;;20.80;99963.00;;;;10522049;28;20205;-76
2023/07/01 09:51:51;;;;;;;2.88;2.60;;;;;20.70;99968.00;;;;10516453;28;20606;-75
2023/07/01 09:56:54;;;;;;;2.95;2.70;;;;;20.50;99968.00;;;;10483315;28;20205;-74
2023/07/01 10:01:57;;;;;;;3.20;3.00;;;;;20.90;99965.00;;;;10495255;28;20217;-75
2023/07/01 10:06:58;;;;;;;4.03;3.10;;;;;21.80;99964.00;;;;10523510;28;20200;-75
2023/07/01 10:12:01;;;;;;;3.60;3.22;;;;;21.80;99956.00;;;;10551657;28;20197;-75
2023/07/01 10:17:03;;;;;;;3.10;2.72;;;;;22.00;99957.00;;;;10511010;28;20197;-75
2023/07/01 10:22:29;;;;;;;3.05;2.75;;;;;23.40;99942.00;;;;10502058;28;20213;-74
2023/07/01 10:27:39;;;;;;;3.50;3.20;;;;;24.60;99930.00;;;;10534086;28;20584;-75
2023/07/01 10:32:41;;;;;;;4.68;2.30;;;;;25.80;99930.00;;;;10534702;28;20196;-76
2023/07/01 10:38:02;;;;;;;3.03;1.90;;;;;25.70;99911.00;;;;10533422;28;20247;-75
2023/07/01 10:43:26;;;;;;;4.15;1.80;;;;;27.00;99917.00;;;;10517022;28;20698;-76
2023/07/01 10:48:27;;;;;;;2.10;1.90;;;;;25.10;99930.00;;;;10530244;28;20681;-75
2023/07/01 10:53:30;;;;;;;2.60;1.80;;;;;23.10;99950.00;;;;10530810;28;20201;-75
2023/07/01 10:58:31;;;;;;;4.93;1.90;;;;;22.50;99955.00;;;;10522020;28;20210;-74
2023/07/01 11:03:32;;;;;;;3.28;1.60;;;;;23.60;99952.00;;;;10502477;28;20210;-75
2023/07/01 11:08:53;;;;;;;2.70;1.70;;;;;24.80;99951.00;;;;10533603;28;20208;-74
2023/07/01 11:13:54;;;;;;;3.50;1.58;;;;;26.30;99929.00;;;;10502582;28;20304;-74
2023/07/01 11:19:00;;;;;;;5.03;1.88;;;;;26.50;99941.00;;;;10539635;28;20222;-75
2023/07/01 11:24:09;;;;;;;3.80;1.77;;;;;26.30;99949.00;;;;10524240;28;20197;-75
2023/07/01 11:29:16;;;;;;;4.50;2.58;;;;;26.00;99946.00;;;;10536227;28;20208;-75
2023/07/01 11:34:17;;;;;;;4.47;1.70;;;;;26.60;99945.00;;;;10512228;28;20209;-76
2023/07/01 11:39:19;;;;;;;3.38;1.83;;;;;26.30;99944.00;;;;10508721;28;20221;-75
2023/07/01 11:44:26;;;;;;;4.03;1.63;;;;;25.50;99953.00;;;;10541017;28;20291;-74
2023/07/01 11:49:29;;;;;;;3.80;1.65;;;;;25.40;99948.00;;;;10540474;28;20325;-75
2023/07/01 11:54:46;;;;;;;4.10;1.40;;;;;25.90;99961.00;;;;10542197;28;20193;-75
2023/07/01 11:59:52;;;;;;;2.83;2.00;;;;;24.80;99961.00;;;;10541250;28;20216;-75
2023/07/01 12:04:54;;;;;;;4.15;1.70;;;;;24.90;99964.00;;;;10512523;28;20584;-75
2023/07/01 12:09:55;;;;;;;4.43;1.70;;;;;24.60;99962.00;;;;10540268;28;20192;-75
2023/07/01 12:15:12;;;;;;;3.67;1.15;;;;;24.60;99968.00;;;;10551412;28;20697;-75
2023/07/01 12:20:13;;;;;;;2.25;1.55;;;;;25.40;99966.00;;;;10540124;28;20216;-75
2023/07/01 12:25:15;;;;;;;3.67;1.77;;;;;25.80;99966.00;;;;10529584;28;20193;-75
2023/07/01 12:30:16;;;;;;;1.48;1.17;;;;;25.70;99961.00;;;;10539062;28;20200;-75
2023/07/01 12:35:18;;;;;;;1.88;1.30;;;;;24.40;99969.00;;;;10511942;28;20203;-76
2023/07/01 12:40:19;;;;;;;4.35;1.23;;;;;24.20;99973.00;;;;10537824;28;20228;-74
2023/07/01 12:45:21;;;;;;;3.53;1.45;;;;;23.00;99981.00;;;;10538775;28;20775;-75
2023/07/01 12:50:22;;;;;;;1.83;1.40;;;;;22.30;99992.00;;;;10528325;28;20208;-75
2023/07/01 12:55:25;;;;;;;2.10;1.42;;;;;21.80;100006.00;;;;10521613;28;20261;-75
2023/07/01 13:00:26;;;;;;;2.60;1.55;;;;;21.60;100017.00;;;;10538421;28;20678;-75
2023/07/01 13:05:28;;;;;;;6.43;1.75;;;;;21.70;100024.00;;;;10522986;28;20204;-76
2023/07/01 13:10:30;;;;;;;4.43;1.70;;;;;23.40;100016.00;;;;10537257;28;20215;-75
2023/07/01 13:15:32;;;;;;;4.22;2.03;;;;;23.70;100014.00;;;;10537958;28;20212;-74
2023/07/01 13:20:36;;;;;;;4.18;1.77;;;;;23.90;100021.00;;;;10519226;28;20219;-75
2023/07/01 13:25:37;;;;;;;3.58;1.85;;;;;23.10;100015.00;;;;10537618;28;20551;-76
2023/07/01 13:30:47;;;;;;;5.63;1.65;;;;;22.00;100014.00;;;;10537067;28;20205;-75
2023/07/01 13:35:48;;;;;;;6.97;1.73;;;;;20.80;100040.00;;;;10501786;28;20299;-76
2023/07/01 13:40:51;;;;;;;5.97;2.53;;;;;19.80;100039.00;;;;10534424;28;20216;-76
2023/07/01 13:45:52;;;;;;;4.18;2.13;;;;;20.10;100048.00;;;;10502515;28;20287;-76
2023/07/01 13:50:54;;;;;;;4.45;3.30;;;;;20.20;100064.00;;;;10535385;28;20288;-76
2023/07/01 13:55:56;;;;;;;5.65;3.05;;;;;20.60;100056.00;;;;10536141;28;20238;-76
2023/07/01 14:00:58;;;;;;;4.60;2.63;;;;;21.50;100055.00;;;;10536212;28;20213;-75
2023/07/01 14:05:59;;;;;;;5.70;2.47;;;;;22.00;100056.00;;;;10521275;28;20676;-76
2023/07/01 14:11:00;;;;;;;2.15;1.80;;;;;21.50;100075.00;;;;10536869;28;20336;-76
2023/07/01 14:16:01;;;;;;;3.13;1.70;;;;;21.30;100067.00;;;;10537119;28;20236;-76
2023/07/01 14:21:07;;;;;;;4.15;1.30;;;;;22.30;100066.00;;;;10505608;28;20232;-76
2023/07/01 14:26:14;;;;;;;1.63;1.05;;;;;22.80;100056.00;;;;10547033;28;20244;-76
2023/07/01 14:31:25;;;;;;;1.67;1.10;;;;;22.80;100065.00;;;;10539667;28;20211;-75
2023/07/01 14:36:36;;;;;;;4.35;1.13;;;;;22.70;100065.00;;;;10502884;28;20205;-75
2023/07/01 14:41:40;;;;;;;2.55;1.00;;;;;21.70;100085.00;;;;10523037;28;20220;-76
2023/07/01 14:46:41;;;;;;;3.25;1.10;;;;;21.10;100077.00;;;;10531216;28;20201;-74
2023/07/01 14:51:42;;;;;;;3.28;1.02;;;;;21.40;100069.00;;;;10496416;28;20199;-76
2023/07/01 14:56:46;;;;;;;3.78;1.00;;;;;21.60;100066.00;;;;10541383;28;20199;-75
2023/07/01 15:01:47;;;;;;;4.25;1.27;;;;;21.80;100060.00;;;;10525751;28;20216;-75
2023/07/01 15:06:48;;;;;;;3.05;1.15;;;;;22.00;100077.00;;;;10527146;28;20195;-77
2023/07/01 15:11:50;;;;;;;3.05;1.20;;;;;22.00;100077.00;;;;10541431;28;20250;-76
2023/07/01 15:16:51;;;;;;;2.10;1.02;;;;;22.20;100082.00;;;;10536951;28;20321;-78
2023/07/01 15:21:52;;;;;;;4.05;1.40;;;;;22.20;100077.00;;;;10534658;28;20219;-75
2023/07/01 15:26:54;;;;;;;2.75;1.40;;;;;21.70;100091.00;;;;10510577;28;20205;-75
2023/07/01 15:31:55;;;;;;;4.60;1.33;;;;;21.60;100083.00;;;;10522937;28;20292;-75
2023/07/01 15:36:57;;;;;;;1.85;1.30;;;;;22.00;100085.00;;;;10509373;28;20196;-75
2023/07/01 15:41:58;;;;;;;3.75;1.10;;;;;22.00;100083.00;;;;10525656;28;20244;-75
2023/07/01 15:47:00;;;;;;;6.55;1.45;;;;;22.10;100083.00;;;;10541412;28;20243;-75
2023/07/01 15:52:01;;;;;;;4.32;1.45;;;;;21.70;100091.00;;;;10503095;28;20579;-75
2023/07/01 15:57:05;;;;;;;3.58;1.23;;;;;21.10;100098.00;;;;10514135;28;20201;-75
2023/07/01 16:02:08;;;;;;;2.97;1.30;;;;;20.70;100107.00;;;;10538266;28;20216;-74
2023/07/01 16:07:18;;;;;;;1.38;0.88;;;;;20.10;100131.00;;;;10496118;28;20582;-74
2023/07/01 16:12:38;;;;;;;0.88;0.80;;;;;19.20;100144.00;;;;10534296;28;20578;-75
2023/07/01 16:17:41;;;;;;;2.80;0.88;;;;;18.30;100154.00;;;;10519641;28;20201;-74
2023/07/01 16:22:43;;;;;;;2.53;1.20;;;;;17.70;100161.00;;;;10522183;28;20581;-75
2023/07/01 16:27:44;;;;;;;1.75;1.23;;;;;17.40;100169.00;;;;10489692;28;20323;-76
2023/07/01 16:32:56;;;;;;;1.00;0.90;;;;;17.70;100154.00;;;;10553449;28;20544;-76
2023/07/01 16:37:57;;;;;;;3.60;1.10;;;;;18.10;100162.00;;;;10550784;28;20276;-76
2023/07/01 16:42:58;;;;;;;0.90;0.90;;;;;18.20;100156.00;;;;10542477;28;20227;-76
2023/07/01 16:48:00;;;;;;;1.00;1.00;;;;;18.30;100155.00;;;;10540881;28;20254;-77
2023/07/01 16:53:03;;;;;;;0.98;0.85;;;;;18.80;100154.00;;;;10534501;28;20633;-75
2023/07/01 16:58:04;;;;;;;2.13;1.27;;;;;19.20;100165.00;;;;10511683;28;20201;-77
2023/07/01 17:03:17;;;;;;;1.30;1.20;;;;;19.20;100159.00;;;;10528301;28;20220;-76
2023/07/01 17:08:23;;;;;;;2.25;1.45;;;;;19.10;100158.00;;;;10536645;28;20193;-75
2023/07/01 17:13:34;;;;;;;3.70;1.40;;;;;18.90;100159.00;;;;10525677;28;20225;-75
2023/07/01 17:18:36;;;;;;;1.42;1.30;;;;;18.70;100166.00;;;;10533024;28;20205;-75
2023/07/01 17:23:37;;;;;;;3.70;1.77;;;;;18.50;100174.00;;;;10518770;28;20299;-75
2023/07/01 17:28:38;;;;;;;3.63;1.65;;;;;18.30;100181.00;;;;10493465;28;20681;-73
2023/07/01 17:33:39;;;;;;;2.40;1.83;;;;;18.10;100179.00;;;;10553681;28;20203;-74
2023/07/01 17:38:41;;;;;;;3.00;1.83;;;;;17.90;100184.00;;;;10536359;28;20192;-74
2023/07/01 17:43:42;;;;;;;3.10;2.38;;;;;17.70;100185.00;;;;10527246;28;20216;-75
2023/07/01 17:48:44;;;;;;;4.22;2.70;;;;;17.40;100183.00;;;;10554944;28;20541;-75
2023/07/01 17:53:45;;;;;;;3.95;2.67;;;;;17.30;100198.00;;;;10529582;28;20201;-75
2023/07/01 17:58:46;;;;;;;4.40;3.25;;;;;17.20;100194.00;;;;10507328;28;20271;-74
2023/07/01 18:03:47;;;;;;;8.38;3.78;;;;;17.10;100196.00;;;;10520833;28;20208;-74
2023/07/01 18:08:51;;;;;;;7.72;4.53;;;;;17.00;100193.00;;;;10492699;28;20283;-74
2023/07/01 18:13:52;;;;;;;5.20;4.50;;;;;17.00;100186.00;;;;10519335;28;20208;-74
2023/07/01 18:18:53;;;;;;;4.97;4.15;;;;;17.10;100188.00;;;;10531463;28;20199;-73
2023/07/01 18:23:55;;;;;;;7.57;4.72;;;;;17.10;100190.00;;;;10495785;28;20200;-74
2023/07/01 18:28:56;;;;;;;6.82;4.32;;;;;17.10;100198.00;;;;10485059;28;20268;-75
2023/07/01 18:33:57;;;;;;;4.70;4.30;;;;;17.10;100187.00;;;;10485421;28;20277;-74
2023/07/01 18:38:58;;;;;;;9.95;4.78;;;;;17.20;100191.00;;;;10532445;28;20296;-75
2023/07/01 18:44:00;;;;;;;6.40;4.93;;;;;17.20;100207.00;;;;10502170;28;20219;-75
2023/07/01 18:49:04;;;;;;;7.22;4.93;;;;;17.10;100207.00;;;;10519289;28;20205;-75
2023/07/01 18:54:05;;;;;;;8.90;5.13;;;;;17.10;100217.00;;;;10534566;28;20197;-75
2023/07/01 18:59:07;;;;;;;6.35;5.40;;;;;17.10;100217.00;;;;10525585;28;20204;-74
2023/07/01 19:04:08;;;;;;;6.95;5.43;;;;;17.10;100221.00;;;;10526907;28;20569;-75
2023/07/01 19:09:10;;;;;;;9.80;5.70;;;;;17.10;100226.00;;;;10550480;28;20701;-75
2023/07/01 19:14:11;;;;;;;7.88;5.45;;;;;17.10;100231.00;;;;10526121;28;20682;-75
2023/07/01 19:19:18;;;;;;;10.23;5.70;;;;;17.10;100233.00;;;;10512013;28;20211;-75
2023/07/01 19:24:24;;;;;;;7.35;5.20;;;;;17.10;100238.00;;;;10516966;28;20212;-75
2023/07/01 19:29:27;;;;;;;10.45;5.60;;;;;17.10;100239.00;;;;10501689;28;20211;-75
2023/07/01 19:34:28;;;;;;;9.18;5.20;;;;;17.10;100247.00;;;;10540666;28;20215;-76
2023/07/01 19:39:29;;;;;;;11.85;5.78;;;;;17.10;100248.00;;;;10540510;28;20330;-76
2023/07/01 19:44:31;;;;;;;5.95;4.70;;;;;17.10;100256.00;;;;10543021;28;20200;-75
2023/07/01 19:49:32;;;;;;;6.13;4.28;;;;;17.00;100264.00;;;;10499123;28;20209;-75
2023/07/01 19:54:33;;;;;;;9.90;4.22;;;;;16.90;100267.00;;;;10503460;28;20312;-75
2023/07/01 19:59:37;;;;;;;8.00;4.82;;;;;16.80;100276.00;;;;10515863;28;20228;-75
2023/07/01 20:04:38;;;;;;;7.30;4.95;;;;;16.80;100288.00;;;;10501553;28;20594;-76
2023/07/01 20:09:40;;;;;;;9.05;4.43;;;;;16.80;100297.00;;;;10501010;28;20616;-75
2023/07/01 20:14:41;;;;;;;9.85;4.78;;;;;16.70;100300.00;;;;10500186;28;20194;-75
2023/07/01 20:19:43;;;;;;;10.88;4.47;;;;;16.70;100301.00;;;;10501266;28;20663;-75
2023/07/01 20:24:44;;;;;;;7.88;5.03;;;;;16.60;100307.00;;;;10543160;28;20652;-75
2023/07/01 20:29:45;;;;;;;10.80;4.47;;;;;16.60;100305.00;;;;10542790;28;20268;-75
2023/07/01 20:34:52;;;;;;;8.70;4.60;;;;;16.70;100309.00;;;;10524538;28;20197;-75
2023/07/01 20:39:53;;;;;;;7.38;4.50;;;;;16.70;100316.00;;;;10540908;28;20612;-75
2023/07/01 20:44:54;;;;;;;9.75;4.70;;;;;16.70;100313.00;;;;10523468;28;20284;-75
2023/07/01 20:49:58;;;;;;;10.77;5.03;;;;;16.60;100312.00;;;;10542149;28;20200;-75
2023/07/01 20:54:59;;;;;;;11.23;5.60;;;;;16.60;100319.00;;;;10503914;28;20207;-75
2023/07/01 21:00:00;;;;;;;12.10;5.38;;;;;16.60;100318.00;;;;10541346;28;20262;-76
2023/07/01 21:05:02;;;;;;;8.38;5.20;;;;;16.60;100317.00;;;;10523496;28;20189;-76
2023/07/01 21:10:03;;;;;;;8.50;5.20;;;;;16.60;100316.00;;;;10520607;28;20200;-75
2023/07/01 21:15:05;;;;;;;14.95;6.28;;;;;16.60;100323.00;;;;10541249;28;20232;-75
2023/07/01 21:20:07;;;;;;;9.90;6.57;;;;;16.60;100317.00;;;;10543444;28;20235;-75
2023/07/01 21:25:10;;;;;;;10.10;6.35;;;;;16.60;100332.00;;;;10541420;28;20707;-75
2023/07/01 21:30:22;;;;;;;17.38;7.35;;;;;16.50;100334.00;;;;10540625;28;20585;-75
2023/07/01 21:35:31;;;;;;;19.88;8.63;;;;;16.50;100340.00;;;;10537267;28;20189;-75
2023/07/01 21:40:37;;;;;;;14.68;7.68;;;;;16.50;100338.00;;;;10513251;28;20701;-75
2023/07/01 21:45:38;;;;;;;16.77;8.50;;;;;16.50;100337.00;;;;10541085;28;20224;-75
2023/07/01 21:50:58;;;;;;;18.75;8.68;;;;;16.50;100343.00;;;;10539679;28;20196;-75
2023/07/01 21:56:00;;;;;;;17.52;8.98;;;;;16.50;100348.00;;;;10522513;28;20657;-75
2023/07/01 22:01:06;;;;;;;20.65;9.38;;;;;16.40;100336.00;;;;10538091;28;20213;-76
2023/07/01 22:06:13;;;;;;;16.45;10.20;;;;;16.40;100343.00;;;;10538418;28;20201;-75
2023/07/01 22:11:15;;;;;;;25.70;10.40;;;;;16.40;100338.00;;;;10522102;28;20189;-75
2023/07/01 22:16:16;;;;;;;23.92;9.90;;;;;16.50;100331.00;;;;10539543;28;20276;-75
2023/07/01 22:21:18;;;;;;;21.38;11.07;;;;;16.40;100325.00;;;;10537766;28;20212;-76
2023/07/01 22:26:19;;;;;;;20.75;11.88;;;;;16.40;100335.00;;;;10497634;28;20288;-75
2023/07/01 22:31:21;;;;;;;23.50;11.77;;;;;16.40;100330.00;;;;10495258;28;20312;-75
2023/07/01 22:36:22;;;;;;;23.02;10.88;;;;;16.40;100335.00;;;;10478704;28;20189;-75
2023/07/01 22:41:25;;;;;;;24.35;12.68;;;;;16.30;100347.00;;;;10511000;28;20221;-75
2023/07/01 22:46:26;;;;;;;27.20;13.13;;;;;16.30;100343.00;;;;10494357;28;20224;-76
2023/07/01 22:51:29;;;;;;;24.73;12.38;;;;;16.30;100346.00;;;;10504300;28;20200;-76
2023/07/01 22:56:31;;;;;;;26.75;13.50;;;;;16.20;100345.00;;;;10538831;28;20234;-75
2023/07/01 23:01:32;;;;;;;24.05;12.55;;;;;16.20;100342.00;;;;10520690;28;20219;-75
2023/07/01 23:06:33;;;;;;;27.17;14.27;;;;;16.20;100349.00;;;;10538852;28;20246;-75
2023/07/01 23:11:34;;;;;;;29.70;14.25;;;;;16.10;100344.00;;;;10508681;28;20613;-75
2023/07/01 23:16:35;;;;;;;27.10;14.27;;;;;16.10;100341.00;;;;10545428;28;20246;-75
2023/07/01 23:21:37;;;;;;;23.90;14.13;;;;;16.10;100335.00;;;;10545164;28;20209;-75
2023/07/01 23:26:40;;;;;;;28.77;14.60;;;;;16.10;100338.00;;;;10526598;28;20346;-76
2023/07/01 23:31:41;;;;;;;30.10;15.18;;;;;16.10;100341.00;;;;10527222;28;20196;-75
2023/07/01 23:36:42;;;;;;;26.30;14.65;;;;;16.10;100338.00;;;;10547303;28;20189;-75
2023/07/01 23:41:44;;;;;;;30.10;14.70;;;;;16.00;100336.00;;;;10545933;28;20726;-76
2023/07/01 23:46:45;;;;;;;30.73;15.90;;;;;16.00;100331.00;;;;10545412;28;20197;-76
2023/07/01 23:51:46;;;;;;;31.13;16.20;;;;;15.90;100325.00;;;;10526638;28;20593;-76
2023/07/01 23:56:47;;;;;;;26.58;14.32;;;;;15.90;100331.00;;;;10527435;28;20192;-75
